N423DT KU08-KVGT
Flight info
| Callsign | N423DT |
|---|---|
| Flight time | 0h 37m |
| Altitude | 10000 |
| Route | LSV |
| Aircraft | BE60/L-SDFGRY/G |
Departure
| Time | 2026-04-25 23:53 |
|---|---|
| Airport | Perkins Field (KU08) |
Arrival
| Time | 2026-04-26 00:31 |
|---|---|
| Airport | North Las Vegas Airport (KVGT) |
| Time | Latitude | Longitude | Altitude | Speed | Heading |
|---|---|---|---|---|---|
| 2026-04-25 23:46 | 36.56218 | -114.44060 | 1341 ft | 0 kts | 149° |
| 2026-04-25 23:47 | 36.56213 | -114.44057 | 1341 ft | 0 kts | 152° |
| 2026-04-25 23:47 | 36.56212 | -114.44056 | 1341 ft | 2 kts | 150° |
| 2026-04-25 23:47 | 36.56273 | -114.44054 | 1341 ft | 27 kts | 325° |
| 2026-04-25 23:48 | 36.56478 | -114.44195 | 1345 ft | 39 kts | 330° |
| 2026-04-25 23:48 | 36.56708 | -114.44353 | 1350 ft | 37 kts | 330° |
| 2026-04-25 23:48 | 36.56926 | -114.44507 | 1354 ft | 35 kts | 328° |
| 2026-04-25 23:48 | 36.57137 | -114.44657 | 1359 ft | 35 kts | 331° |
| 2026-04-25 23:49 | 36.57338 | -114.44795 | 1364 ft | 18 kts | 337° |
| 2026-04-25 23:49 | 36.56277 | -114.44081 | 1342 ft | 0 kts | 158° |
| 2026-04-25 23:51 | 36.56258 | -114.44074 | 1343 ft | 11 kts | 153° |
| 2026-04-25 23:52 | 36.56219 | -114.43987 | 1344 ft | 8 kts | 77° |
| 2026-04-25 23:52 | 36.56231 | -114.43958 | 1339 ft | 14 kts | 55° |
| 2026-04-25 23:52 | 36.56408 | -114.44057 | 1343 ft | 54 kts | 319° |
| 2026-04-25 23:52 | 36.56887 | -114.44374 | 1389 ft | 96 kts | 332° |
| 2026-04-25 23:53 | 36.57558 | -114.44700 | 1613 ft | 115 kts | 336° |
| 2026-04-25 23:53 | 36.58374 | -114.44976 | 1902 ft | 126 kts | 350° |
| 2026-04-25 23:53 | 36.59275 | -114.45145 | 2227 ft | 133 kts | 353° |
| 2026-04-25 23:53 | 36.60241 | -114.45136 | 2517 ft | 145 kts | 6° |
| 2026-04-25 23:54 | 36.61276 | -114.44892 | 2773 ft | 156 kts | 9° |
| 2026-04-25 23:54 | 36.62359 | -114.44571 | 2992 ft | 162 kts | 10° |
| 2026-04-25 23:54 | 36.63457 | -114.44218 | 3230 ft | 164 kts | 10° |
| 2026-04-25 23:54 | 36.64573 | -114.43844 | 3475 ft | 167 kts | 11° |
| 2026-04-25 23:55 | 36.65320 | -114.43589 | 3638 ft | 169 kts | 11° |
| 2026-04-25 23:55 | 36.66825 | -114.43069 | 3960 ft | 169 kts | 11° |
| 2026-04-25 23:55 | 36.67593 | -114.42815 | 4128 ft | 169 kts | 11° |
| 2026-04-25 23:55 | 36.69095 | -114.42306 | 4451 ft | 168 kts | 11° |
| 2026-04-25 23:56 | 36.70215 | -114.41907 | 4695 ft | 166 kts | 12° |
| 2026-04-25 23:56 | 36.71333 | -114.41531 | 4941 ft | 167 kts | 11° |
| 2026-04-25 23:56 | 36.72099 | -114.41279 | 5107 ft | 170 kts | 11° |
| 2026-04-25 23:56 | 36.73241 | -114.40895 | 5347 ft | 169 kts | 12° |
| 2026-04-25 23:57 | 36.74375 | -114.40522 | 5594 ft | 168 kts | 11° |
| 2026-04-25 23:57 | 36.75507 | -114.40157 | 5852 ft | 169 kts | 11° |
| 2026-04-25 23:57 | 36.76645 | -114.39798 | 6103 ft | 168 kts | 11° |
| 2026-04-25 23:57 | 36.77765 | -114.39450 | 6336 ft | 168 kts | 11° |
| 2026-04-25 23:58 | 36.78905 | -114.39094 | 6571 ft | 169 kts | 11° |
| 2026-04-25 23:58 | 36.80045 | -114.38739 | 6813 ft | 169 kts | 11° |
| 2026-04-25 23:58 | 36.81188 | -114.38382 | 7055 ft | 171 kts | 11° |
| 2026-04-25 23:58 | 36.82355 | -114.38022 | 7299 ft | 174 kts | 8° |
| 2026-04-25 23:59 | 36.83495 | -114.38184 | 7534 ft | 160 kts | 321° |
| 2026-04-25 23:59 | 36.84191 | -114.39085 | 7789 ft | 134 kts | 277° |
| 2026-04-25 23:59 | 36.84171 | -114.40110 | 8042 ft | 113 kts | 240° |
| 2026-04-25 23:59 | 36.83937 | -114.41059 | 8290 ft | 115 kts | 244° |
| 2026-04-26 00:00 | 36.83673 | -114.42007 | 8546 ft | 116 kts | 243° |
| 2026-04-26 00:00 | 36.83392 | -114.42965 | 8805 ft | 118 kts | 242° |
| 2026-04-26 00:00 | 36.83131 | -114.43937 | 9061 ft | 118 kts | 243° |
| 2026-04-26 00:00 | 36.82872 | -114.44904 | 9313 ft | 118 kts | 243° |
| 2026-04-26 00:01 | 36.82592 | -114.45875 | 9496 ft | 125 kts | 244° |
| 2026-04-26 00:01 | 36.82246 | -114.46952 | 9490 ft | 140 kts | 243° |
| 2026-04-26 00:01 | 36.81851 | -114.48118 | 9506 ft | 151 kts | 243° |
| 2026-04-26 00:01 | 36.81449 | -114.49355 | 9507 ft | 155 kts | 242° |
| 2026-04-26 00:02 | 36.81054 | -114.50620 | 9490 ft | 158 kts | 244° |
| 2026-04-26 00:02 | 36.80644 | -114.51897 | 9494 ft | 158 kts | 242° |
| 2026-04-26 00:02 | 36.80270 | -114.53165 | 9495 ft | 154 kts | 243° |
| 2026-04-26 00:02 | 36.79897 | -114.54413 | 9491 ft | 153 kts | 243° |
| 2026-04-26 00:03 | 36.79518 | -114.55651 | 9493 ft | 153 kts | 243° |
| 2026-04-26 00:03 | 36.79128 | -114.56884 | 9494 ft | 152 kts | 242° |
| 2026-04-26 00:03 | 36.78744 | -114.58109 | 9485 ft | 153 kts | 243° |
| 2026-04-26 00:03 | 36.78346 | -114.59363 | 9384 ft | 156 kts | 244° |
| 2026-04-26 00:04 | 36.77949 | -114.60612 | 9458 ft | 153 kts | 244° |
| 2026-04-26 00:04 | 36.77580 | -114.61807 | 9598 ft | 144 kts | 242° |
| 2026-04-26 00:04 | 36.77184 | -114.62953 | 9661 ft | 145 kts | 240° |
| 2026-04-26 00:04 | 36.76749 | -114.64079 | 9770 ft | 143 kts | 237° |
| 2026-04-26 00:05 | 36.76290 | -114.65164 | 9852 ft | 140 kts | 235° |
| 2026-04-26 00:05 | 36.75840 | -114.66257 | 9876 ft | 148 kts | 249° |
| 2026-04-26 00:05 | 36.75921 | -114.67592 | 9886 ft | 162 kts | 276° |
| 2026-04-26 00:05 | 36.76272 | -114.68952 | 9889 ft | 167 kts | 282° |
| 2026-04-26 00:06 | 36.76651 | -114.70331 | 9887 ft | 169 kts | 279° |
| 2026-04-26 00:06 | 36.77074 | -114.71705 | 9888 ft | 170 kts | 281° |
| 2026-04-26 00:06 | 36.77516 | -114.73076 | 9887 ft | 170 kts | 281° |
| 2026-04-26 00:06 | 36.77946 | -114.74456 | 9888 ft | 171 kts | 281° |
| 2026-04-26 00:07 | 36.78351 | -114.75852 | 9891 ft | 172 kts | 283° |
| 2026-04-26 00:07 | 36.78726 | -114.77270 | 9893 ft | 173 kts | 282° |
| 2026-04-26 00:07 | 36.78786 | -114.78703 | 9890 ft | 164 kts | 248° |
| 2026-04-26 00:07 | 36.78169 | -114.79843 | 9893 ft | 158 kts | 224° |
| 2026-04-26 00:08 | 36.77398 | -114.80795 | 9894 ft | 154 kts | 221° |
| 2026-04-26 00:08 | 36.76653 | -114.81678 | 9894 ft | 154 kts | 221° |
| 2026-04-26 00:08 | 36.75884 | -114.82562 | 9913 ft | 156 kts | 221° |
| 2026-04-26 00:08 | 36.75064 | -114.83501 | 9889 ft | 158 kts | 221° |
| 2026-04-26 00:09 | 36.74258 | -114.84432 | 9890 ft | 157 kts | 221° |
| 2026-04-26 00:09 | 36.73462 | -114.85359 | 9886 ft | 156 kts | 221° |
| 2026-04-26 00:09 | 36.72688 | -114.86267 | 9891 ft | 154 kts | 221° |
| 2026-04-26 00:09 | 36.71900 | -114.87191 | 9889 ft | 154 kts | 220° |
| 2026-04-26 00:10 | 36.71132 | -114.88099 | 9889 ft | 155 kts | 221° |
| 2026-04-26 00:10 | 36.70331 | -114.89023 | 9898 ft | 161 kts | 221° |
| 2026-04-26 00:10 | 36.69499 | -114.89984 | 9893 ft | 164 kts | 221° |
| 2026-04-26 00:10 | 36.68665 | -114.90956 | 9894 ft | 164 kts | 221° |
| 2026-04-26 00:11 | 36.67845 | -114.91920 | 9891 ft | 161 kts | 221° |
| 2026-04-26 00:11 | 36.67032 | -114.92871 | 9893 ft | 160 kts | 221° |
| 2026-04-26 00:11 | 36.66217 | -114.93812 | 9893 ft | 160 kts | 221° |
| 2026-04-26 00:11 | 36.65394 | -114.94756 | 9893 ft | 162 kts | 221° |
| 2026-04-26 00:12 | 36.64572 | -114.95693 | 9892 ft | 159 kts | 221° |
| 2026-04-26 00:12 | 36.63762 | -114.96625 | 9899 ft | 158 kts | 220° |
| 2026-04-26 00:12 | 36.62965 | -114.97565 | 9895 ft | 158 kts | 221° |
| 2026-04-26 00:12 | 36.62160 | -114.98503 | 9893 ft | 159 kts | 221° |
| 2026-04-26 00:13 | 36.61354 | -114.99437 | 9889 ft | 159 kts | 221° |
| 2026-04-26 00:13 | 36.60541 | -115.00365 | 9891 ft | 158 kts | 221° |
| 2026-04-26 00:13 | 36.59731 | -115.01291 | 9904 ft | 159 kts | 222° |
| 2026-04-26 00:13 | 36.58913 | -115.02198 | 9917 ft | 156 kts | 221° |
| 2026-04-26 00:14 | 36.58084 | -115.03080 | 9894 ft | 157 kts | 221° |
| 2026-04-26 00:14 | 36.57255 | -115.03950 | 9906 ft | 155 kts | 221° |
| 2026-04-26 00:14 | 36.56425 | -115.04828 | 9902 ft | 159 kts | 221° |
| 2026-04-26 00:14 | 36.55589 | -115.05722 | 9911 ft | 157 kts | 221° |
| 2026-04-26 00:15 | 36.54771 | -115.06590 | 9916 ft | 152 kts | 221° |
| 2026-04-26 00:15 | 36.53968 | -115.07418 | 9927 ft | 150 kts | 221° |
| 2026-04-26 00:15 | 36.53162 | -115.08264 | 9922 ft | 153 kts | 221° |
| 2026-04-26 00:15 | 36.52342 | -115.09123 | 9922 ft | 154 kts | 221° |
| 2026-04-26 00:16 | 36.51524 | -115.09989 | 9925 ft | 156 kts | 221° |
| 2026-04-26 00:16 | 36.50684 | -115.10872 | 9925 ft | 159 kts | 221° |
| 2026-04-26 00:16 | 36.49841 | -115.11758 | 9918 ft | 158 kts | 221° |
| 2026-04-26 00:16 | 36.49021 | -115.12623 | 9926 ft | 152 kts | 221° |
| 2026-04-26 00:17 | 36.48212 | -115.13460 | 9923 ft | 152 kts | 221° |
| 2026-04-26 00:17 | 36.47402 | -115.14308 | 9921 ft | 153 kts | 221° |
| 2026-04-26 00:17 | 36.46568 | -115.15190 | 9789 ft | 161 kts | 221° |
| 2026-04-26 00:17 | 36.45701 | -115.16107 | 9648 ft | 165 kts | 221° |
| 2026-04-26 00:18 | 36.44824 | -115.17037 | 9514 ft | 166 kts | 221° |
| 2026-04-26 00:18 | 36.43953 | -115.17961 | 9439 ft | 161 kts | 221° |
| 2026-04-26 00:18 | 36.43110 | -115.18850 | 9438 ft | 157 kts | 221° |
| 2026-04-26 00:18 | 36.42293 | -115.19730 | 9438 ft | 156 kts | 226° |
| 2026-04-26 00:19 | 36.41885 | -115.20971 | 9447 ft | 162 kts | 262° |
| 2026-04-26 00:19 | 36.41958 | -115.22379 | 9449 ft | 164 kts | 269° |
| 2026-04-26 00:19 | 36.42136 | -115.23774 | 9451 ft | 164 kts | 272° |
| 2026-04-26 00:19 | 36.42299 | -115.25183 | 9450 ft | 166 kts | 271° |
| 2026-04-26 00:20 | 36.42441 | -115.26604 | 9439 ft | 166 kts | 271° |
| 2026-04-26 00:20 | 36.42586 | -115.28036 | 9455 ft | 168 kts | 271° |
| 2026-04-26 00:20 | 36.42735 | -115.29468 | 9467 ft | 167 kts | 271° |
| 2026-04-26 00:20 | 36.42885 | -115.30896 | 9465 ft | 167 kts | 271° |
| 2026-04-26 00:21 | 36.43033 | -115.32327 | 9437 ft | 167 kts | 271° |
| 2026-04-26 00:21 | 36.43178 | -115.33758 | 9449 ft | 168 kts | 271° |
| 2026-04-26 00:21 | 36.43313 | -115.35204 | 9449 ft | 169 kts | 271° |
| 2026-04-26 00:21 | 36.43453 | -115.36663 | 9446 ft | 170 kts | 271° |
| 2026-04-26 00:22 | 36.43604 | -115.38120 | 9437 ft | 170 kts | 271° |
| 2026-04-26 00:22 | 36.43758 | -115.39607 | 9301 ft | 177 kts | 271° |
| 2026-04-26 00:22 | 36.43916 | -115.41137 | 9145 ft | 180 kts | 271° |
| 2026-04-26 00:22 | 36.43831 | -115.42643 | 8981 ft | 174 kts | 245° |
| 2026-04-26 00:23 | 36.43057 | -115.43751 | 8725 ft | 174 kts | 211° |
| 2026-04-26 00:23 | 36.41883 | -115.44108 | 8423 ft | 177 kts | 185° |
| 2026-04-26 00:23 | 36.40660 | -115.43834 | 8110 ft | 183 kts | 162° |
| 2026-04-26 00:23 | 36.39615 | -115.42924 | 7813 ft | 187 kts | 141° |
| 2026-04-26 00:24 | 36.38759 | -115.41757 | 7732 ft | 178 kts | 138° |
| 2026-04-26 00:24 | 36.37962 | -115.40670 | 7664 ft | 173 kts | 141° |
| 2026-04-26 00:24 | 36.37122 | -115.39623 | 7588 ft | 170 kts | 143° |
| 2026-04-26 00:24 | 36.36280 | -115.38609 | 7478 ft | 168 kts | 142° |
| 2026-04-26 00:25 | 36.35436 | -115.37595 | 7285 ft | 173 kts | 142° |
| 2026-04-26 00:25 | 36.34588 | -115.36479 | 6979 ft | 183 kts | 135° |
| 2026-04-26 00:25 | 36.33919 | -115.35138 | 6780 ft | 184 kts | 123° |
| 2026-04-26 00:25 | 36.33419 | -115.33708 | 6505 ft | 172 kts | 128° |
| 2026-04-26 00:26 | 36.32646 | -115.32738 | 6286 ft | 149 kts | 160° |
| 2026-04-26 00:26 | 36.31771 | -115.32059 | 5989 ft | 152 kts | 157° |
| 2026-04-26 00:26 | 36.30904 | -115.31288 | 5638 ft | 154 kts | 153° |
| 2026-04-26 00:26 | 36.30012 | -115.30472 | 5160 ft | 164 kts | 148° |
| 2026-04-26 00:27 | 36.29211 | -115.29440 | 4814 ft | 163 kts | 146° |
| 2026-04-26 00:27 | 36.28393 | -115.28485 | 4536 ft | 158 kts | 149° |
| 2026-04-26 00:27 | 36.27863 | -115.27924 | 4347 ft | 141 kts | 150° |
| 2026-04-26 00:28 | 36.26069 | -115.25561 | 3705 ft | 103 kts | 144° |
| 2026-04-26 00:28 | 36.25526 | -115.25026 | 3630 ft | 98 kts | 136° |
| 2026-04-26 00:28 | 36.25021 | -115.24458 | 3559 ft | 100 kts | 133° |
| 2026-04-26 00:29 | 36.24567 | -115.23780 | 3495 ft | 102 kts | 150° |
| 2026-04-26 00:29 | 36.24075 | -115.23139 | 3400 ft | 104 kts | 157° |
| 2026-04-26 00:29 | 36.23550 | -115.22510 | 3258 ft | 104 kts | 160° |
| 2026-04-26 00:29 | 36.23046 | -115.21928 | 3108 ft | 95 kts | 158° |
| 2026-04-26 00:30 | 36.22601 | -115.21347 | 2931 ft | 93 kts | 159° |
| 2026-04-26 00:30 | 36.22140 | -115.20760 | 2649 ft | 98 kts | 159° |
| 2026-04-26 00:30 | 36.21681 | -115.20151 | 2419 ft | 89 kts | 146° |
| 2026-04-26 00:30 | 36.21248 | -115.19636 | 2233 ft | 84 kts | 145° |
| 2026-04-26 00:31 | 36.20963 | -115.19293 | 2180 ft | 28 kts | 152° |
| 2026-04-26 00:31 | 36.20856 | -115.19172 | 2175 ft | 23 kts | 135° |
| 2026-04-26 00:31 | 36.20722 | -115.18987 | 2164 ft | 31 kts | 135° |
| 2026-04-26 00:31 | 36.20679 | -115.18861 | 2160 ft | 11 kts | 48° |
| 2026-04-26 00:32 | 36.20702 | -115.18833 | 2157 ft | 0 kts | 37° |
| 2026-04-26 00:33 | 36.20726 | -115.18802 | 2161 ft | 15 kts | 45° |
| 2026-04-26 00:33 | 36.20789 | -115.18750 | 2163 ft | 13 kts | 11° |
| 2026-04-26 00:33 | 36.20851 | -115.18749 | 2166 ft | 13 kts | 353° |
| 2026-04-26 00:33 | 36.20919 | -115.18757 | 2168 ft | 0 kts | 353° |